sensor_id;sensor_type;location;lat;lon;timestamp;pressure;altitude;pressure_sealevel;temperature;humidity
55517;BME280;41724;51.176;-0.708;2023-05-10T00:00:28;100618.18;;;13.30;81.03
55517;BME280;41724;51.176;-0.708;2023-05-10T00:02:55;100620.14;;;13.53;80.10
55517;BME280;41724;51.176;-0.708;2023-05-10T00:05:22;100621.74;;;13.66;79.96
55517;BME280;41724;51.176;-0.708;2023-05-10T00:07:49;100620.94;;;13.52;79.69
55517;BME280;41724;51.176;-0.708;2023-05-10T00:10:16;100618.99;;;13.29;80.81
55517;BME280;41724;51.176;-0.708;2023-05-10T00:12:43;100617.80;;;13.68;80.20
55517;BME280;41724;51.176;-0.708;2023-05-10T00:15:11;100619.35;;;13.44;79.62
55517;BME280;41724;51.176;-0.708;2023-05-10T00:17:37;100619.78;;;13.74;78.95
55517;BME280;41724;51.176;-0.708;2023-05-10T00:20:05;100620.51;;;14.16;78.27
55517;BME280;41724;51.176;-0.708;2023-05-10T00:22:32;100622.72;;;14.18;77.34
55517;BME280;41724;51.176;-0.708;2023-05-10T00:24:59;100625.96;;;14.29;76.85
55517;BME280;41724;51.176;-0.708;2023-05-10T00:27:26;100627.13;;;14.30;77.64
55517;BME280;41724;51.176;-0.708;2023-05-10T00:29:53;100625.37;;;13.88;78.58
55517;BME280;41724;51.176;-0.708;2023-05-10T00:32:20;100626.07;;;13.61;80.07
55517;BME280;41724;51.176;-0.708;2023-05-10T00:34:48;100626.89;;;13.61;79.74
55517;BME280;41724;51.176;-0.708;2023-05-10T00:37:15;100623.85;;;13.93;79.36
55517;BME280;41724;51.176;-0.708;2023-05-10T00:39:42;100623.90;;;13.62;80.78
55517;BME280;41724;51.176;-0.708;2023-05-10T00:42:09;100623.64;;;13.27;80.97
55517;BME280;41724;51.176;-0.708;2023-05-10T00:44:36;100626.01;;;13.29;81.36
55517;BME280;41724;51.176;-0.708;2023-05-10T00:47:03;100621.73;;;13.51;81.38
55517;BME280;41724;51.176;-0.708;2023-05-10T00:49:30;100626.61;;;13.16;81.43
55517;BME280;41724;51.176;-0.708;2023-05-10T00:51:57;100625.80;;;13.61;80.14
55517;BME280;41724;51.176;-0.708;2023-05-10T00:54:24;100626.87;;;13.38;81.12
55517;BME280;41724;51.176;-0.708;2023-05-10T00:56:51;100629.82;;;13.50;80.89
55517;BME280;41724;51.176;-0.708;2023-05-10T00:59:18;100631.40;;;13.66;79.66
55517;BME280;41724;51.176;-0.708;2023-05-10T01:01:46;100629.77;;;13.92;79.71
55517;BME280;41724;51.176;-0.708;2023-05-10T01:04:14;100631.10;;;13.75;79.22
55517;BME280;41724;51.176;-0.708;2023-05-10T01:06:41;100631.35;;;13.72;79.61
55517;BME280;41724;51.176;-0.708;2023-05-10T01:09:09;100633.11;;;13.00;81.30
55517;BME280;41724;51.176;-0.708;2023-05-10T01:11:38;100631.68;;;13.35;80.93
55517;BME280;41724;51.176;-0.708;2023-05-10T01:14:06;100635.31;;;12.79;82.11
55517;BME280;41724;51.176;-0.708;2023-05-10T01:16:37;100636.65;;;12.97;82.55
55517;BME280;41724;51.176;-0.708;2023-05-10T01:19:05;100633.26;;;13.21;82.05
55517;BME280;41724;51.176;-0.708;2023-05-10T01:21:45;100635.01;;;13.74;80.89
55517;BME280;41724;51.176;-0.708;2023-05-10T01:24:51;100637.85;;;13.47;81.28
55517;BME280;41724;51.176;-0.708;2023-05-10T01:27:39;100639.47;;;13.75;80.74
55517;BME280;41724;51.176;-0.708;2023-05-10T01:30:42;100640.37;;;13.12;82.22
55517;BME280;41724;51.176;-0.708;2023-05-10T01:33:16;100642.08;;;14.16;79.19
55517;BME280;41724;51.176;-0.708;2023-05-10T01:35:54;100644.05;;;14.15;77.72
55517;BME280;41724;51.176;-0.708;2023-05-10T01:38:32;100644.06;;;14.03;79.19
55517;BME280;41724;51.176;-0.708;2023-05-10T01:41:11;100643.63;;;14.17;77.79
55517;BME280;41724;51.176;-0.708;2023-05-10T01:43:49;100642.69;;;13.92;79.63
55517;BME280;41724;51.176;-0.708;2023-05-10T01:46:26;100642.00;;;13.81;80.01
55517;BME280;41724;51.176;-0.708;2023-05-10T01:48:57;100645.58;;;14.10;79.26
55517;BME280;41724;51.176;-0.708;2023-05-10T01:51:27;100648.20;;;14.53;77.95
55517;BME280;41724;51.176;-0.708;2023-05-10T01:54:00;100646.26;;;13.99;78.39
55517;BME280;41724;51.176;-0.708;2023-05-10T01:56:33;100648.43;;;13.28;81.00
55517;BME280;41724;51.176;-0.708;2023-05-10T01:59:08;100647.67;;;13.61;81.56
55517;BME280;41724;51.176;-0.708;2023-05-10T02:01:37;100655.70;;;13.90;79.31
55517;BME280;41724;51.176;-0.708;2023-05-10T02:04:06;100655.87;;;13.52;81.63
55517;BME280;41724;51.176;-0.708;2023-05-10T02:06:34;100653.53;;;13.82;79.87
55517;BME280;41724;51.176;-0.708;2023-05-10T02:09:03;100656.42;;;14.46;78.59
55517;BME280;41724;51.176;-0.708;2023-05-10T02:11:32;100659.22;;;13.83;78.41
55517;BME280;41724;51.176;-0.708;2023-05-10T02:14:00;100661.56;;;14.27;77.36
55517;BME280;41724;51.176;-0.708;2023-05-10T02:16:28;100660.26;;;14.39;75.86
55517;BME280;41724;51.176;-0.708;2023-05-10T02:18:56;100658.27;;;14.59;76.11
55517;BME280;41724;51.176;-0.708;2023-05-10T02:21:26;100659.43;;;14.52;76.06
55517;BME280;41724;51.176;-0.708;2023-05-10T02:23:56;100661.16;;;14.78;77.07
55517;BME280;41724;51.176;-0.708;2023-05-10T02:26:26;100664.07;;;14.60;75.81
55517;BME280;41724;51.176;-0.708;2023-05-10T02:28:54;100662.35;;;14.41;74.44
55517;BME280;41724;51.176;-0.708;2023-05-10T02:31:23;100668.58;;;14.84;74.94
55517;BME280;41724;51.176;-0.708;2023-05-10T02:33:50;100665.91;;;14.63;75.42
55517;BME280;41724;51.176;-0.708;2023-05-10T02:36:20;100670.06;;;13.85;77.37
55517;BME280;41724;51.176;-0.708;2023-05-10T02:38:48;100673.44;;;14.35;76.89
55517;BME280;41724;51.176;-0.708;2023-05-10T02:41:16;100675.79;;;14.33;76.56
55517;BME280;41724;51.176;-0.708;2023-05-10T02:43:46;100677.51;;;13.88;78.69
55517;BME280;41724;51.176;-0.708;2023-05-10T02:46:14;100681.61;;;14.33;76.27
55517;BME280;41724;51.176;-0.708;2023-05-10T02:48:41;100685.72;;;14.51;75.66
55517;BME280;41724;51.176;-0.708;2023-05-10T02:51:08;100687.59;;;14.35;77.01
55517;BME280;41724;51.176;-0.708;2023-05-10T02:53:36;100689.33;;;14.48;76.64
55517;BME280;41724;51.176;-0.708;2023-05-10T02:56:11;100688.03;;;14.39;75.55
55517;BME280;41724;51.176;-0.708;2023-05-10T02:58:40;100696.87;;;14.20;75.10
55517;BME280;41724;51.176;-0.708;2023-05-10T03:01:07;100696.60;;;13.61;76.63
55517;BME280;41724;51.176;-0.708;2023-05-10T03:03:34;100699.60;;;14.02;76.69
55517;BME280;41724;51.176;-0.708;2023-05-10T03:06:01;100700.07;;;13.92;76.08
55517;BME280;41724;51.176;-0.708;2023-05-10T03:08:28;100705.27;;;14.14;74.68
55517;BME280;41724;51.176;-0.708;2023-05-10T03:11:10;100704.36;;;14.01;75.11
55517;BME280;41724;51.176;-0.708;2023-05-10T03:13:46;100706.60;;;13.72;74.81
55517;BME280;41724;51.176;-0.708;2023-05-10T03:16:19;100707.65;;;13.87;74.18
55517;BME280;41724;51.176;-0.708;2023-05-10T03:18:54;100708.38;;;13.94;74.39
55517;BME280;41724;51.176;-0.708;2023-05-10T03:21:26;100711.18;;;14.06;73.45
55517;BME280;41724;51.176;-0.708;2023-05-10T03:24:03;100713.38;;;13.99;72.98
55517;BME280;41724;51.176;-0.708;2023-05-10T03:26:34;100712.27;;;13.74;73.40
55517;BME280;41724;51.176;-0.708;2023-05-10T03:29:02;100717.36;;;14.11;73.38
55517;BME280;41724;51.176;-0.708;2023-05-10T03:31:31;100719.95;;;14.01;73.14
55517;BME280;41724;51.176;-0.708;2023-05-10T03:34:00;100724.37;;;13.28;75.08
55517;BME280;41724;51.176;-0.708;2023-05-10T03:36:28;100717.20;;;13.66;73.76
55517;BME280;41724;51.176;-0.708;2023-05-10T03:38:54;100722.95;;;13.51;74.20
55517;BME280;41724;51.176;-0.708;2023-05-10T03:41:21;100723.54;;;13.73;73.53
55517;BME280;41724;51.176;-0.708;2023-05-10T03:43:49;100725.21;;;13.69;72.79
55517;BME280;41724;51.176;-0.708;2023-05-10T03:46:16;100727.73;;;13.45;73.73
55517;BME280;41724;51.176;-0.708;2023-05-10T03:48:43;100730.99;;;13.51;73.83
55517;BME280;41724;51.176;-0.708;2023-05-10T03:51:10;100733.39;;;13.62;73.02
55517;BME280;41724;51.176;-0.708;2023-05-10T03:53:37;100735.67;;;13.55;71.93
55517;BME280;41724;51.176;-0.708;2023-05-10T03:56:04;100738.70;;;13.29;73.81
55517;BME280;41724;51.176;-0.708;2023-05-10T03:58:31;100745.18;;;13.09;74.54
55517;BME280;41724;51.176;-0.708;2023-05-10T04:00:58;100748.13;;;13.03;73.33
55517;BME280;41724;51.176;-0.708;2023-05-10T04:03:25;100743.82;;;13.13;72.72
55517;BME280;41724;51.176;-0.708;2023-05-10T04:05:59;100749.03;;;12.90;76.42
55517;BME280;41724;51.176;-0.708;2023-05-10T04:08:26;100748.57;;;12.74;76.09
55517;BME280;41724;51.176;-0.708;2023-05-10T04:10:53;100750.10;;;12.86;74.49
55517;BME280;41724;51.176;-0.708;2023-05-10T04:13:20;100750.49;;;12.49;76.62
55517;BME280;41724;51.176;-0.708;2023-05-10T04:15:47;100754.36;;;12.32;77.12
55517;BME280;41724;51.176;-0.708;2023-05-10T04:18:14;100754.49;;;12.26;77.22
55517;BME280;41724;51.176;-0.708;2023-05-10T04:20:41;100760.37;;;12.00;77.47
55517;BME280;41724;51.176;-0.708;2023-05-10T04:23:08;100756.61;;;12.42;76.88
55517;BME280;41724;51.176;-0.708;2023-05-10T04:25:35;100757.67;;;12.39;76.03
55517;BME280;41724;51.176;-0.708;2023-05-10T04:28:02;100763.78;;;12.14;76.82
55517;BME280;41724;51.176;-0.708;2023-05-10T04:30:29;100758.44;;;12.55;73.27
55517;BME280;41724;51.176;-0.708;2023-05-10T04:32:56;100760.06;;;12.81;72.17
55517;BME280;41724;51.176;-0.708;2023-05-10T04:35:23;100763.75;;;12.90;71.55
55517;BME280;41724;51.176;-0.708;2023-05-10T04:37:50;100766.29;;;12.94;71.62
55517;BME280;41724;51.176;-0.708;2023-05-10T04:40:18;100769.19;;;12.96;70.78
55517;BME280;41724;51.176;-0.708;2023-05-10T04:42:44;100769.44;;;12.99;70.55
55517;BME280;41724;51.176;-0.708;2023-05-10T04:45:12;100770.92;;;12.97;70.60
55517;BME280;41724;51.176;-0.708;2023-05-10T04:47:39;100771.26;;;12.79;71.70
55517;BME280;41724;51.176;-0.708;2023-05-10T04:50:07;100774.09;;;12.93;69.89
55517;BME280;41724;51.176;-0.708;2023-05-10T04:52:34;100778.38;;;12.65;70.24
55517;BME280;41724;51.176;-0.708;2023-05-10T04:55:01;100781.01;;;12.87;70.20
55517;BME280;41724;51.176;-0.708;2023-05-10T04:57:28;100786.32;;;12.96;69.83
55517;BME280;41724;51.176;-0.708;2023-05-10T04:59:55;100788.43;;;12.80;70.49
55517;BME280;41724;51.176;-0.708;2023-05-10T05:02:23;100788.05;;;13.01;69.78
55517;BME280;41724;51.176;-0.708;2023-05-10T05:04:50;100787.58;;;13.04;70.77
55517;BME280;41724;51.176;-0.708;2023-05-10T05:07:17;100790.42;;;13.06;69.60
55517;BME280;41724;51.176;-0.708;2023-05-10T05:09:43;100796.92;;;12.97;69.78
55517;BME280;41724;51.176;-0.708;2023-05-10T05:12:11;100800.74;;;13.09;70.95
55517;BME280;41724;51.176;-0.708;2023-05-10T05:14:38;100803.92;;;13.27;71.17
55517;BME280;41724;51.176;-0.708;2023-05-10T05:17:05;100806.79;;;12.96;70.83
55517;BME280;41724;51.176;-0.708;2023-05-10T05:19:32;100806.77;;;12.77;70.13
55517;BME280;41724;51.176;-0.708;2023-05-10T05:21:59;100806.93;;;12.76;70.07
55517;BME280;41724;51.176;-0.708;2023-05-10T05:24:26;100809.50;;;12.89;70.42
55517;BME280;41724;51.176;-0.708;2023-05-10T05:26:54;100805.46;;;12.92;71.17
55517;BME280;41724;51.176;-0.708;2023-05-10T05:29:22;100805.03;;;12.98;72.03
55517;BME280;41724;51.176;-0.708;2023-05-10T05:31:48;100806.21;;;13.26;73.11
55517;BME280;41724;51.176;-0.708;2023-05-10T05:34:15;100806.33;;;13.03;72.87
55517;BME280;41724;51.176;-0.708;2023-05-10T05:36:42;100808.83;;;13.47;71.12
55517;BME280;41724;51.176;-0.708;2023-05-10T05:39:09;100810.00;;;13.15;72.19
55517;BME280;41724;51.176;-0.708;2023-05-10T05:41:36;100810.99;;;13.30;71.91
55517;BME280;41724;51.176;-0.708;2023-05-10T05:44:03;100814.27;;;13.25;71.31
55517;BME280;41724;51.176;-0.708;2023-05-10T05:46:30;100815.44;;;13.34;71.57
55517;BME280;41724;51.176;-0.708;2023-05-10T05:48:57;100818.24;;;13.35;70.67
55517;BME280;41724;51.176;-0.708;2023-05-10T05:51:24;100821.85;;;13.48;71.36
55517;BME280;41724;51.176;-0.708;2023-05-10T05:53:51;100821.57;;;13.22;72.46
55517;BME280;41724;51.176;-0.708;2023-05-10T05:56:18;100823.51;;;13.62;73.50
55517;BME280;41724;51.176;-0.708;2023-05-10T05:58:45;100823.66;;;13.45;73.33
55517;BME280;41724;51.176;-0.708;2023-05-10T06:01:13;100827.78;;;13.14;75.50
55517;BME280;41724;51.176;-0.708;2023-05-10T06:03:40;100829.14;;;12.67;76.72
55517;BME280;41724;51.176;-0.708;2023-05-10T06:06:07;100829.92;;;13.02;76.57
55517;BME280;41724;51.176;-0.708;2023-05-10T06:08:34;100832.23;;;12.46;77.07
55517;BME280;41724;51.176;-0.708;2023-05-10T06:11:01;100830.22;;;12.60;78.50
55517;BME280;41724;51.176;-0.708;2023-05-10T06:13:28;100833.42;;;12.02;80.74
55517;BME280;41724;51.176;-0.708;2023-05-10T06:15:54;100830.25;;;12.38;79.33
55517;BME280;41724;51.176;-0.708;2023-05-10T06:18:21;100840.05;;;12.30;80.51
55517;BME280;41724;51.176;-0.708;2023-05-10T06:20:49;100845.77;;;12.33;80.16
55517;BME280;41724;51.176;-0.708;2023-05-10T06:23:17;100848.65;;;12.70;80.26
55517;BME280;41724;51.176;-0.708;2023-05-10T06:25:44;100853.77;;;12.27;79.79
55517;BME280;41724;51.176;-0.708;2023-05-10T06:28:11;100855.79;;;11.85;82.59
55517;BME280;41724;51.176;-0.708;2023-05-10T06:30:38;100855.12;;;12.25;80.46
55517;BME280;41724;51.176;-0.708;2023-05-10T06:33:05;100849.99;;;13.15;78.17
55517;BME280;41724;51.176;-0.708;2023-05-10T06:35:32;100857.26;;;12.34;78.45
55517;BME280;41724;51.176;-0.708;2023-05-10T06:37:59;100859.63;;;12.96;78.85
55517;BME280;41724;51.176;-0.708;2023-05-10T06:40:26;100856.94;;;12.76;78.28
55517;BME280;41724;51.176;-0.708;2023-05-10T06:42:53;100857.66;;;13.13;77.02
55517;BME280;41724;51.176;-0.708;2023-05-10T06:45:20;100859.23;;;12.98;77.51
55517;BME280;41724;51.176;-0.708;2023-05-10T06:47:47;100860.36;;;12.63;78.77
55517;BME280;41724;51.176;-0.708;2023-05-10T06:50:14;100857.88;;;13.54;79.01
55517;BME280;41724;51.176;-0.708;2023-05-10T06:52:42;100863.62;;;13.01;78.03
55517;BME280;41724;51.176;-0.708;2023-05-10T06:55:09;100866.94;;;12.49;80.42
55517;BME280;41724;51.176;-0.708;2023-05-10T06:57:36;100871.73;;;12.16;81.21
55517;BME280;41724;51.176;-0.708;2023-05-10T07:00:05;100872.32;;;12.62;78.88
55517;BME280;41724;51.176;-0.708;2023-05-10T07:02:32;100874.41;;;12.28;82.57
55517;BME280;41724;51.176;-0.708;2023-05-10T07:04:59;100874.72;;;12.44;80.57
55517;BME280;41724;51.176;-0.708;2023-05-10T07:07:26;100865.25;;;13.04;79.47
55517;BME280;41724;51.176;-0.708;2023-05-10T07:09:53;100865.37;;;13.36;79.83
55517;BME280;41724;51.176;-0.708;2023-05-10T07:12:20;100871.88;;;13.57;78.10
55517;BME280;41724;51.176;-0.708;2023-05-10T07:14:47;100876.71;;;13.52;75.92
55517;BME280;41724;51.176;-0.708;2023-05-10T07:17:14;100872.57;;;13.11;76.96
55517;BME280;41724;51.176;-0.708;2023-05-10T07:19:41;100874.98;;;13.64;76.41
55517;BME280;41724;51.176;-0.708;2023-05-10T07:22:08;100876.20;;;13.38;75.84
55517;BME280;41724;51.176;-0.708;2023-05-10T07:24:35;100877.95;;;13.29;77.15
55517;BME280;41724;51.176;-0.708;2023-05-10T07:27:02;100882.05;;;13.06;78.92
55517;BME280;41724;51.176;-0.708;2023-05-10T07:29:30;100879.68;;;13.12;77.68
55517;BME280;41724;51.176;-0.708;2023-05-10T07:31:57;100881.55;;;12.53;79.59
55517;BME280;41724;51.176;-0.708;2023-05-10T07:34:24;100880.52;;;12.93;80.22
55517;BME280;41724;51.176;-0.708;2023-05-10T07:36:51;100880.64;;;12.78;80.43
55517;BME280;41724;51.176;-0.708;2023-05-10T07:39:18;100879.10;;;12.97;80.36
55517;BME280;41724;51.176;-0.708;2023-05-10T07:41:45;100881.72;;;12.89;79.55
55517;BME280;41724;51.176;-0.708;2023-05-10T07:44:12;100888.06;;;13.06;81.17
55517;BME280;41724;51.176;-0.708;2023-05-10T07:46:39;100889.60;;;12.34;82.84
55517;BME280;41724;51.176;-0.708;2023-05-10T07:49:06;100890.70;;;12.91;82.16
55517;BME280;41724;51.176;-0.708;2023-05-10T07:51:33;100890.83;;;13.85;76.82
55517;BME280;41724;51.176;-0.708;2023-05-10T07:54:00;100892.04;;;14.23;73.63
55517;BME280;41724;51.176;-0.708;2023-05-10T07:56:29;100891.61;;;13.82;75.90
55517;BME280;41724;51.176;-0.708;2023-05-10T07:58:57;100892.29;;;14.09;74.90
55517;BME280;41724;51.176;-0.708;2023-05-10T08:01:24;100894.86;;;13.49;76.59
55517;BME280;41724;51.176;-0.708;2023-05-10T08:03:51;100890.11;;;13.62;77.08
55517;BME280;41724;51.176;-0.708;2023-05-10T08:06:19;100895.98;;;13.72;76.14
55517;BME280;41724;51.176;-0.708;2023-05-10T08:08:48;100897.51;;;13.99;75.09
55517;BME280;41724;51.176;-0.708;2023-05-10T08:11:15;100893.80;;;14.27;74.79
55517;BME280;41724;51.176;-0.708;2023-05-10T08:13:42;100897.14;;;14.28;72.76
55517;BME280;41724;51.176;-0.708;2023-05-10T08:16:09;100897.93;;;14.30;72.19
55517;BME280;41724;51.176;-0.708;2023-05-10T08:18:35;100897.70;;;14.11;72.24
55517;BME280;41724;51.176;-0.708;2023-05-10T08:21:03;100901.56;;;14.32;71.43
55517;BME280;41724;51.176;-0.708;2023-05-10T08:23:30;100899.68;;;15.30;69.96
55517;BME280;41724;51.176;-0.708;2023-05-10T08:25:57;100903.96;;;15.01;72.07
55517;BME280;41724;51.176;-0.708;2023-05-10T08:28:24;100903.44;;;15.09;70.69
55517;BME280;41724;51.176;-0.708;2023-05-10T08:30:51;100902.11;;;15.52;69.89
55517;BME280;41724;51.176;-0.708;2023-05-10T08:33:19;100904.99;;;15.39;70.61
55517;BME280;41724;51.176;-0.708;2023-05-10T08:35:46;100902.49;;;15.01;67.95
55517;BME280;41724;51.176;-0.708;2023-05-10T08:38:13;100903.79;;;15.41;69.99
55517;BME280;41724;51.176;-0.708;2023-05-10T08:40:42;100905.45;;;14.92;71.73
55517;BME280;41724;51.176;-0.708;2023-05-10T08:43:11;100901.32;;;15.73;68.53
55517;BME280;41724;51.176;-0.708;2023-05-10T08:45:40;100899.07;;;15.89;68.21
55517;BME280;41724;51.176;-0.708;2023-05-10T08:48:09;100903.24;;;16.03;67.52
55517;BME280;41724;51.176;-0.708;2023-05-10T08:50:38;100902.80;;;16.44;65.36
55517;BME280;41724;51.176;-0.708;2023-05-10T08:53:09;100899.03;;;16.99;65.58
55517;BME280;41724;51.176;-0.708;2023-05-10T08:55:37;100895.27;;;17.02;63.05
55517;BME280;41724;51.176;-0.708;2023-05-10T08:58:05;100900.16;;;17.67;60.81
55517;BME280;41724;51.176;-0.708;2023-05-10T09:00:33;100894.35;;;17.96;61.81
55517;BME280;41724;51.176;-0.708;2023-05-10T09:03:02;100897.63;;;17.49;59.80
55517;BME280;41724;51.176;-0.708;2023-05-10T09:05:29;100897.84;;;18.01;59.27
55517;BME280;41724;51.176;-0.708;2023-05-10T09:08:01;100900.70;;;17.24;61.27
55517;BME280;41724;51.176;-0.708;2023-05-10T09:10:30;100903.48;;;17.16;59.16
55517;BME280;41724;51.176;-0.708;2023-05-10T09:12:57;100900.77;;;17.13;59.76
55517;BME280;41724;51.176;-0.708;2023-05-10T09:15:24;100895.88;;;17.31;62.63
55517;BME280;41724;51.176;-0.708;2023-05-10T09:17:52;100901.44;;;17.16;59.70
55517;BME280;41724;51.176;-0.708;2023-05-10T09:20:20;100901.39;;;17.35;59.56
55517;BME280;41724;51.176;-0.708;2023-05-10T09:22:47;100902.84;;;17.87;59.12
55517;BME280;41724;51.176;-0.708;2023-05-10T09:25:16;100906.75;;;17.02;61.51
55517;BME280;41724;51.176;-0.708;2023-05-10T09:27:46;100909.62;;;17.28;61.37
55517;BME280;41724;51.176;-0.708;2023-05-10T09:30:16;100912.32;;;17.11;60.35
55517;BME280;41724;51.176;-0.708;2023-05-10T09:32:47;100909.93;;;17.17;61.70
55517;BME280;41724;51.176;-0.708;2023-05-10T09:35:16;100906.96;;;17.05;59.62
55517;BME280;41724;51.176;-0.708;2023-05-10T09:37:45;100901.59;;;17.88;61.96
55517;BME280;41724;51.176;-0.708;2023-05-10T09:40:14;100896.20;;;18.37;58.30
55517;BME280;41724;51.176;-0.708;2023-05-10T09:42:52;100895.60;;;18.41;55.91
55517;BME280;41724;51.176;-0.708;2023-05-10T09:45:20;100898.82;;;17.44;56.70
55517;BME280;41724;51.176;-0.708;2023-05-10T09:47:47;100896.75;;;17.49;56.69
55517;BME280;41724;51.176;-0.708;2023-05-10T09:50:15;100896.89;;;17.45;59.57
55517;BME280;41724;51.176;-0.708;2023-05-10T09:52:50;100893.42;;;17.03;57.90
55517;BME280;41724;51.176;-0.708;2023-05-10T09:55:20;100896.30;;;16.48;61.03
55517;BME280;41724;51.176;-0.708;2023-05-10T09:57:48;100904.52;;;16.40;60.94
55517;BME280;41724;51.176;-0.708;2023-05-10T10:00:18;100900.24;;;16.65;61.48
55517;BME280;41724;51.176;-0.708;2023-05-10T10:02:47;100896.93;;;16.64;64.05
55517;BME280;41724;51.176;-0.708;2023-05-10T10:05:14;100894.99;;;17.62;58.33
55517;BME280;41724;51.176;-0.708;2023-05-10T10:07:41;100891.16;;;18.51;60.06
55517;BME280;41724;51.176;-0.708;2023-05-10T10:10:09;100889.21;;;18.93;56.40
55517;BME280;41724;51.176;-0.708;2023-05-10T10:12:38;100886.76;;;19.33;55.14
55517;BME280;41724;51.176;-0.708;2023-05-10T10:15:07;100894.49;;;17.00;57.44
55517;BME280;41724;51.176;-0.708;2023-05-10T10:17:36;100895.71;;;15.28;63.05
55517;BME280;41724;51.176;-0.708;2023-05-10T10:20:03;100897.08;;;16.79;61.65
55517;BME280;41724;51.176;-0.708;2023-05-10T10:22:30;100901.71;;;16.98;61.84
55517;BME280;41724;51.176;-0.708;2023-05-10T10:24:57;100899.75;;;17.51;57.40
55517;BME280;41724;51.176;-0.708;2023-05-10T10:27:35;100897.40;;;17.00;57.58
55517;BME280;41724;51.176;-0.708;2023-05-10T10:30:16;100894.61;;;17.58;57.03
55517;BME280;41724;51.176;-0.708;2023-05-10T10:33:09;100888.90;;;18.39;53.48
55517;BME280;41724;51.176;-0.708;2023-05-10T10:35:40;100882.07;;;19.10;53.57
55517;BME280;41724;51.176;-0.708;2023-05-10T10:38:08;100880.24;;;19.53;52.62
55517;BME280;41724;51.176;-0.708;2023-05-10T10:40:35;100882.64;;;18.02;54.35
55517;BME280;41724;51.176;-0.708;2023-05-10T10:43:35;100885.42;;;17.27;50.38
55517;BME280;41724;51.176;-0.708;2023-05-10T10:46:11;100881.37;;;18.33;49.09
55517;BME280;41724;51.176;-0.708;2023-05-10T10:48:40;100870.58;;;19.91;47.47
55517;BME280;41724;51.176;-0.708;2023-05-10T10:51:07;100869.75;;;19.64;48.80
55517;BME280;41724;51.176;-0.708;2023-05-10T10:53:34;100873.90;;;19.91;48.94
55517;BME280;41724;51.176;-0.708;2023-05-10T10:56:09;100875.99;;;19.65;49.19
55517;BME280;41724;51.176;-0.708;2023-05-10T10:58:37;100879.78;;;18.53;51.20
55517;BME280;41724;51.176;-0.708;2023-05-10T11:01:14;100876.74;;;18.28;51.45
55517;BME280;41724;51.176;-0.708;2023-05-10T11:04:18;100871.48;;;19.18;51.73
55517;BME280;41724;51.176;-0.708;2023-05-10T11:06:45;100877.41;;;17.91;50.51
55517;BME280;41724;51.176;-0.708;2023-05-10T11:09:12;100882.50;;;18.06;52.64
55517;BME280;41724;51.176;-0.708;2023-05-10T11:11:50;100884.44;;;16.38;56.34
55517;BME280;41724;51.176;-0.708;2023-05-10T11:14:20;100880.57;;;17.79;56.71
55517;BME280;41724;51.176;-0.708;2023-05-10T11:16:48;100879.80;;;16.87;54.16
55517;BME280;41724;51.176;-0.708;2023-05-10T11:19:15;100873.53;;;17.57;56.68
55517;BME280;41724;51.176;-0.708;2023-05-10T11:21:46;100873.02;;;18.35;52.48
55517;BME280;41724;51.176;-0.708;2023-05-10T11:24:15;100870.14;;;17.94;52.19
55517;BME280;41724;51.176;-0.708;2023-05-10T11:26:42;100869.17;;;19.09;51.45
55517;BME280;41724;51.176;-0.708;2023-05-10T11:29:09;100877.26;;;18.50;49.98
55517;BME280;41724;51.176;-0.708;2023-05-10T11:31:42;100876.86;;;18.29;53.96
55517;BME280;41724;51.176;-0.708;2023-05-10T11:34:09;100875.56;;;18.31;51.11
55517;BME280;41724;51.176;-0.708;2023-05-10T11:36:36;100870.58;;;19.02;50.23
55517;BME280;41724;51.176;-0.708;2023-05-10T11:39:04;100874.55;;;19.19;44.50
55517;BME280;41724;51.176;-0.708;2023-05-10T11:41:31;100876.59;;;19.50;43.18
55517;BME280;41724;51.176;-0.708;2023-05-10T11:43:59;100870.16;;;19.54;43.22
55517;BME280;41724;51.176;-0.708;2023-05-10T11:46:27;100875.08;;;18.46;46.66
55517;BME280;41724;51.176;-0.708;2023-05-10T11:48:58;100871.81;;;19.13;44.28
55517;BME280;41724;51.176;-0.708;2023-05-10T11:51:26;100872.92;;;17.66;48.45
55517;BME280;41724;51.176;-0.708;2023-05-10T11:53:54;100872.46;;;18.30;49.36
55517;BME280;41724;51.176;-0.708;2023-05-10T11:56:21;100875.88;;;18.35;48.71
55517;BME280;41724;51.176;-0.708;2023-05-10T11:58:54;100883.73;;;18.38;49.65
55517;BME280;41724;51.176;-0.708;2023-05-10T12:01:23;100881.28;;;17.25;52.34
55517;BME280;41724;51.176;-0.708;2023-05-10T12:03:52;100884.26;;;17.36;55.62
55517;BME280;41724;51.176;-0.708;2023-05-10T12:06:21;100894.11;;;16.34;59.47
55517;BME280;41724;51.176;-0.708;2023-05-10T12:08:48;100895.18;;;16.36;63.41
55517;BME280;41724;51.176;-0.708;2023-05-10T12:11:15;100903.90;;;16.68;68.47
55517;BME280;41724;51.176;-0.708;2023-05-10T12:13:43;100900.19;;;16.42;68.23
55517;BME280;41724;51.176;-0.708;2023-05-10T12:16:16;100907.01;;;17.02;63.51
55517;BME280;41724;51.176;-0.708;2023-05-10T12:18:43;100898.68;;;17.82;62.26
55517;BME280;41724;51.176;-0.708;2023-05-10T12:21:12;100895.79;;;18.00;65.16
55517;BME280;41724;51.176;-0.708;2023-05-10T12:23:39;100895.89;;;18.22;60.06
55517;BME280;41724;51.176;-0.708;2023-05-10T12:26:09;100894.97;;;17.21;58.52
55517;BME280;41724;51.176;-0.708;2023-05-10T12:28:37;100898.59;;;16.95;61.27
55517;BME280;41724;51.176;-0.708;2023-05-10T12:31:05;100892.29;;;17.45;56.34
55517;BME280;41724;51.176;-0.708;2023-05-10T12:33:36;100888.80;;;18.67;54.85
55517;BME280;41724;51.176;-0.708;2023-05-10T12:36:05;100887.51;;;18.20;54.92
55517;BME280;41724;51.176;-0.708;2023-05-10T12:38:33;100884.38;;;17.82;56.14
55517;BME280;41724;51.176;-0.708;2023-05-10T12:41:02;100891.52;;;18.27;56.68
55517;BME280;41724;51.176;-0.708;2023-05-10T12:43:30;100895.81;;;16.72;61.55
55517;BME280;41724;51.176;-0.708;2023-05-10T12:45:58;100896.74;;;15.17;64.20
55517;BME280;41724;51.176;-0.708;2023-05-10T12:48:24;100896.29;;;14.76;64.78